Time,TemperatureF,DewpointF,PressureIn,WindDirection,WindDirectionDegrees,WindSpeedMPH,WindSpeedGustMPH,Humidity,HourlyPrecipIn,Conditions,Clouds,dailyrainin,SoftwareType,DateUTC
2013-05-28 00:00:00,53.6,44.0,30.21,West,270,0.0,238.7,70,4.43,,,0.00,VWS V14.01,2013-05-28 04:00:00,
2013-05-28 00:01:00,55.0,43.6,30.20,West,270,0.0,238.7,65,4.43,,,0.00,VWS V14.01,2013-05-28 04:01:00,
2013-05-28 00:02:00,55.0,43.8,30.20,West,270,0.0,238.7,66,4.43,,,0.00,VWS V14.01,2013-05-28 04:02:00,
2013-05-28 00:03:00,55.0,44.0,30.20,West,270,0.0,238.7,66,4.43,,,0.00,VWS V14.01,2013-05-28 04:03:00,
2013-05-28 00:04:00,53.6,44.0,30.21,West,270,0.0,238.7,70,4.43,,,0.00,VWS V14.01,2013-05-28 04:04:00,
2013-05-28 00:05:00,54.9,43.7,30.20,West,270,0.0,238.7,66,4.43,,,0.00,VWS V14.01,2013-05-28 04:05:00,
2013-05-28 00:06:00,53.6,44.1,30.21,West,270,0.0,238.7,70,4.43,,,0.00,VWS V14.01,2013-05-28 04:06:00,
2013-05-28 00:07:00,53.6,44.0,30.21,West,270,0.0,238.7,70,4.43,,,0.00,VWS V14.01,2013-05-28 04:07:00,
2013-05-28 00:08:00,53.6,44.0,30.21,West,270,0.0,238.7,70,4.43,,,0.00,VWS V14.01,2013-05-28 04:08:00,
2013-05-28 00:09:00,53.5,43.9,30.21,West,270,0.0,238.7,70,4.43,,,0.00,VWS V14.01,2013-05-28 04:09:00,
2013-05-28 00:10:00,53.5,43.9,30.22,West,270,0.0,238.7,70,4.43,,,0.00,VWS V14.01,2013-05-28 04:10:00,
2013-05-28 00:11:00,54.6,44.7,30.20,West,270,0.0,238.7,69,4.43,,,0.00,VWS V14.01,2013-05-28 04:11:00,
2013-05-28 00:12:00,53.5,43.7,30.22,West,270,0.0,238.7,69,4.43,,,0.00,VWS V14.01,2013-05-28 04:12:00,
2013-05-28 00:13:00,54.6,44.9,30.20,West,270,0.0,238.7,70,4.43,,,0.00,VWS V14.01,2013-05-28 04:13:00,
2013-05-28 00:14:00,53.4,43.8,30.22,West,270,0.0,238.7,70,4.43,,,0.00,VWS V14.01,2013-05-28 04:14:00,
2013-05-28 00:15:00,53.4,43.8,30.22,West,270,0.0,238.7,70,4.43,,,0.00,VWS V14.01,2013-05-28 04:15:00,
2013-05-28 00:16:00,53.4,43.9,30.22,West,270,0.0,238.7,70,4.43,,,0.00,VWS V14.01,2013-05-28 04:16:00,
2013-05-28 00:17:00,53.5,44.0,30.22,West,270,0.0,238.7,70,4.43,,,0.00,VWS V14.01,2013-05-28 04:17:00,
2013-05-28 00:18:00,54.4,44.5,30.20,West,270,0.0,238.7,69,4.43,,,0.00,VWS V14.01,2013-05-28 04:18:00,
2013-05-28 00:19:00,53.4,44.0,30.22,West,270,0.0,238.7,70,4.43,,,0.00,VWS V14.01,2013-05-28 04:19:00,
2013-05-28 00:21:00,53.4,44.2,30.22,West,270,0.0,238.7,71,4.43,,,0.00,VWS V14.01,2013-05-28 04:21:00,
2013-05-28 00:22:00,53.3,44.3,30.22,West,270,0.0,238.7,71,4.43,,,0.00,VWS V14.01,2013-05-28 04:22:00,
2013-05-28 00:23:00,54.2,44.4,30.20,West,270,0.0,238.7,69,4.43,,,0.00,VWS V14.01,2013-05-28 04:23:00,
2013-05-28 00:24:00,53.3,44.4,30.22,West,270,0.0,238.7,72,4.43,,,0.00,VWS V14.01,2013-05-28 04:24:00,
2013-05-28 00:25:00,53.3,44.4,30.22,West,270,0.0,238.7,72,4.43,,,0.00,VWS V14.01,2013-05-28 04:25:00,
2013-05-28 00:26:00,53.1,44.4,30.22,West,270,0.0,238.7,72,4.43,,,0.00,VWS V14.01,2013-05-28 04:26:00,
2013-05-28 00:27:00,53.1,44.3,30.22,West,270,0.0,238.7,72,4.43,,,0.00,VWS V14.01,2013-05-28 04:27:00,
2013-05-28 00:28:00,54.1,44.6,30.20,West,270,0.0,238.7,70,4.43,,,0.00,VWS V14.01,2013-05-28 04:28:00,
2013-05-28 00:29:00,53.2,44.6,30.22,West,270,0.0,238.7,72,4.43,,,0.00,VWS V14.01,2013-05-28 04:29:00,
2013-05-28 00:30:00,53.1,44.6,30.22,West,270,0.0,238.7,73,4.43,,,0.00,VWS V14.01,2013-05-28 04:30:00,
2013-05-28 00:31:00,53.2,44.7,30.22,West,270,0.0,238.7,73,4.43,,,0.00,VWS V14.01,2013-05-28 04:31:00,
2013-05-28 00:32:00,53.0,44.5,30.22,West,270,0.0,238.7,73,4.43,,,0.00,VWS V14.01,2013-05-28 04:32:00,
2013-05-28 00:33:00,53.0,44.7,30.22,West,270,0.0,238.7,73,4.43,,,0.00,VWS V14.01,2013-05-28 04:33:00,
2013-05-28 00:34:00,54.0,44.8,30.20,West,270,0.0,238.7,71,4.43,,,0.00,VWS V14.01,2013-05-28 04:34:00,
2013-05-28 00:35:00,53.0,44.9,30.22,West,270,0.0,238.7,74,4.43,,,0.00,VWS V14.01,2013-05-28 04:35:00,
2013-05-28 00:36:00,53.0,44.9,30.22,West,270,0.0,238.7,74,4.43,,,0.00,VWS V14.01,2013-05-28 04:36:00,
2013-05-28 00:37:00,52.8,44.6,30.22,West,270,0.0,238.7,74,4.43,,,0.00,VWS V14.01,2013-05-28 04:37:00,
2013-05-28 00:38:00,52.7,44.4,30.22,West,270,0.0,238.7,73,4.43,,,0.00,VWS V14.01,2013-05-28 04:38:00,
2013-05-28 00:39:00,53.9,44.5,30.20,West,270,0.0,238.7,70,4.43,,,0.00,VWS V14.01,2013-05-28 04:39:00,
2013-05-28 00:40:00,52.8,44.6,30.22,West,270,0.0,238.7,74,4.43,,,0.00,VWS V14.01,2013-05-28 04:40:00,
2013-05-28 00:41:00,52.6,44.6,30.22,West,270,0.0,238.7,74,4.43,,,0.00,VWS V14.01,2013-05-28 04:41:00,
2013-05-28 00:42:00,52.7,44.9,30.22,West,270,0.0,238.7,75,4.43,,,0.00,VWS V14.01,2013-05-28 04:42:00,
2013-05-28 00:43:00,52.7,44.9,30.22,West,270,0.0,238.7,75,4.43,,,0.00,VWS V14.01,2013-05-28 04:43:00,
2013-05-28 00:44:00,53.8,44.2,30.20,West,270,0.0,238.7,70,4.43,,,0.00,VWS V14.01,2013-05-28 04:44:00,
2013-05-28 00:45:00,52.7,44.9,30.22,West,270,0.0,238.7,75,4.43,,,0.00,VWS V14.01,2013-05-28 04:45:00,
2013-05-28 00:47:00,52.5,44.6,30.22,West,270,0.0,238.7,74,4.43,,,0.00,VWS V14.01,2013-05-28 04:47:00,
2013-05-28 00:48:00,52.5,44.6,30.22,West,270,0.0,238.7,74,4.43,,,0.00,VWS V14.01,2013-05-28 04:48:00,
2013-05-28 00:49:00,53.6,43.7,30.21,West,270,0.0,238.7,69,4.43,,,0.00,VWS V14.01,2013-05-28 04:49:00,
2013-05-28 00:50:00,52.5,44.5,30.22,West,270,0.0,238.7,74,4.43,,,0.00,VWS V14.01,2013-05-28 04:50:00,
2013-05-28 00:51:00,52.4,44.3,30.22,West,270,0.0,238.7,74,4.43,,,0.00,VWS V14.01,2013-05-28 04:51:00,
2013-05-28 00:52:00,52.4,44.3,30.22,West,270,0.0,238.7,74,4.43,,,0.00,VWS V14.01,2013-05-28 04:52:00,
2013-05-28 00:53:00,52.3,44.1,30.22,West,270,0.0,238.7,74,4.43,,,0.00,VWS V14.01,2013-05-28 04:53:00,
2013-05-28 00:54:00,53.8,44.1,30.21,West,270,0.0,238.7,70,4.43,,,0.00,VWS V14.01,2013-05-28 04:54:00,
2013-05-28 00:55:00,52.4,44.3,30.22,West,270,0.0,238.7,74,4.43,,,0.00,VWS V14.01,2013-05-28 04:55:00,
2013-05-28 00:57:00,52.3,44.2,30.22,West,270,0.0,238.7,74,4.43,,,0.00,VWS V14.01,2013-05-28 04:57:00,
2013-05-28 00:58:00,52.4,44.2,30.22,West,270,0.0,238.7,74,4.43,,,0.00,VWS V14.01,2013-05-28 04:58:00,
2013-05-28 01:02:00,52.4,44.1,30.22,West,270,0.0,238.7,73,4.43,,,0.00,VWS V14.01,2013-05-28 05:02:00,
2013-05-28 01:03:00,52.3,43.9,30.22,West,270,0.0,238.7,73,4.43,,,0.00,VWS V14.01,2013-05-28 05:03:00,
2013-05-28 01:04:00,52.2,43.8,30.22,West,270,0.0,238.7,73,4.43,,,0.00,VWS V14.01,2013-05-28 05:04:00,
2013-05-28 01:05:00,52.2,43.8,30.22,West,270,0.0,238.7,73,4.43,,,0.00,VWS V14.01,2013-05-28 05:05:00,
2013-05-28 01:06:00,52.5,44.0,30.22,West,270,0.0,238.7,73,4.43,,,0.00,VWS V14.01,2013-05-28 05:06:00,
2013-05-28 01:07:00,52.4,43.9,30.22,West,270,0.0,238.7,73,4.43,,,0.00,VWS V14.01,2013-05-28 05:07:00,
2013-05-28 01:08:00,52.3,44.0,30.22,West,270,0.0,238.7,73,4.43,,,0.00,VWS V14.01,2013-05-28 05:08:00,
2013-05-28 01:09:00,52.4,44.3,30.22,West,270,0.0,238.7,74,4.43,,,0.00,VWS V14.01,2013-05-28 05:09:00,
2013-05-28 01:11:00,52.4,44.4,30.22,West,270,0.0,238.7,74,4.43,,,0.00,VWS V14.01,2013-05-28 05:11:00,
2013-05-28 01:14:00,52.3,44.4,30.22,West,270,0.0,238.7,74,4.43,,,0.00,VWS V14.01,2013-05-28 05:14:00,
2013-05-28 01:15:00,52.3,44.4,30.22,West,270,0.0,238.7,74,4.43,,,0.00,VWS V14.01,2013-05-28 05:15:00,
2013-05-28 01:16:00,52.2,44.4,30.22,West,270,0.0,238.7,75,4.43,,,0.00,VWS V14.01,2013-05-28 05:16:00,
2013-05-28 01:19:00,52.2,44.7,30.22,West,270,0.0,238.7,76,4.43,,,0.00,VWS V14.01,2013-05-28 05:19:00,
2013-05-28 01:20:00,52.0,44.5,30.22,West,270,0.0,238.7,76,4.43,,,0.00,VWS V14.01,2013-05-28 05:20:00,
2013-05-28 01:21:00,52.1,44.7,30.22,West,270,0.0,238.7,76,4.43,,,0.00,VWS V14.01,2013-05-28 05:21:00,
2013-05-28 01:22:00,52.1,44.6,30.22,West,270,0.0,238.7,76,4.43,,,0.00,VWS V14.01,2013-05-28 05:22:00,
2013-05-28 01:23:00,52.0,44.5,30.22,West,270,0.0,238.7,76,4.43,,,0.00,VWS V14.01,2013-05-28 05:23:00,
2013-05-28 01:24:00,52.1,44.6,30.22,West,270,0.0,238.7,75,4.43,,,0.00,VWS V14.01,2013-05-28 05:24:00,
2013-05-28 01:26:00,52.0,44.5,30.22,West,270,0.0,238.7,75,4.43,,,0.00,VWS V14.01,2013-05-28 05:26:00,
2013-05-28 01:27:00,51.9,44.4,30.22,West,270,0.0,238.7,75,4.43,,,0.00,VWS V14.01,2013-05-28 05:27:00,
2013-05-28 01:28:00,52.0,44.5,30.22,West,270,0.0,238.7,76,4.43,,,0.00,VWS V14.01,2013-05-28 05:28:00,
2013-05-28 01:29:00,51.9,44.5,30.22,West,270,0.0,238.7,76,4.43,,,0.00,VWS V14.01,2013-05-28 05:29:00,
2013-05-28 01:30:00,52.0,44.6,30.22,West,270,0.0,238.7,76,4.43,,,0.00,VWS V14.01,2013-05-28 05:30:00,
2013-05-28 01:31:00,51.8,44.6,30.22,West,270,0.0,238.7,76,4.43,,,0.00,VWS V14.01,2013-05-28 05:31:00,
2013-05-28 01:32:00,51.8,44.7,30.22,West,270,0.0,238.7,76,4.43,,,0.00,VWS V14.01,2013-05-28 05:32:00,
2013-05-28 01:33:00,51.8,44.8,30.22,West,270,0.0,238.7,77,4.43,,,0.00,VWS V14.01,2013-05-28 05:33:00,
2013-05-28 01:34:00,51.8,44.8,30.22,West,270,0.0,238.7,77,4.43,,,0.00,VWS V14.01,2013-05-28 05:34:00,
2013-05-28 01:35:00,51.8,44.9,30.21,West,270,0.0,238.7,77,4.43,,,0.00,VWS V14.01,2013-05-28 05:35:00,
2013-05-28 01:41:00,51.7,44.5,30.21,West,270,0.0,238.7,76,4.43,,,0.00,VWS V14.01,2013-05-28 05:41:00,
2013-05-28 01:42:00,51.6,44.3,30.21,West,270,0.0,238.7,76,4.43,,,0.00,VWS V14.01,2013-05-28 05:42:00,
2013-05-28 01:43:00,51.6,44.3,30.21,West,270,0.0,238.7,76,4.43,,,0.00,VWS V14.01,2013-05-28 05:43:00,
2013-05-28 01:44:00,51.5,44.2,30.21,West,270,0.0,238.7,76,4.43,,,0.00,VWS V14.01,2013-05-28 05:44:00,
2013-05-28 01:46:00,51.6,44.4,30.21,West,270,0.0,238.7,76,4.43,,,0.00,VWS V14.01,2013-05-28 05:46:00,
2013-05-28 01:51:00,51.7,44.8,30.21,West,270,0.0,238.7,77,4.43,,,0.00,VWS V14.01,2013-05-28 05:51:00,
2013-05-28 01:53:00,52.3,44.1,30.22,West,270,0.0,238.7,74,4.43,,,0.00,VWS V14.01,2013-05-28 05:53:00,
2013-05-28 01:55:00,51.6,44.6,30.21,West,270,0.0,238.7,77,4.43,,,0.00,VWS V14.01,2013-05-28 05:55:00,
2013-05-28 01:59:00,52.2,44.0,30.22,West,270,0.0,238.7,73,4.43,,,0.00,VWS V14.01,2013-05-28 05:59:00,
2013-05-28 02:01:00,51.7,44.0,30.21,West,270,0.0,238.7,75,4.43,,,0.00,VWS V14.01,2013-05-28 06:01:00,
2013-05-28 02:04:00,51.7,43.9,30.21,West,270,0.0,238.7,75,4.43,,,0.00,VWS V14.01,2013-05-28 06:04:00,
2013-05-28 02:07:00,51.5,43.8,30.21,West,270,0.0,238.7,75,4.43,,,0.00,VWS V14.01,2013-05-28 06:07:00,
2013-05-28 02:08:00,52.4,44.5,30.22,West,270,0.0,238.7,74,4.43,,,0.00,VWS V14.01,2013-05-28 06:08:00,
2013-05-28 02:09:00,51.5,43.6,30.21,West,270,0.0,238.7,74,4.43,,,0.00,VWS V14.01,2013-05-28 06:09:00,
2013-05-28 02:11:00,51.5,43.5,30.21,West,270,0.0,238.7,74,4.43,,,0.00,VWS V14.01,2013-05-28 06:11:00,
2013-05-28 02:14:00,52.1,44.5,30.22,West,270,0.0,238.7,75,4.43,,,0.00,VWS V14.01,2013-05-28 06:14:00,
2013-05-28 02:16:00,51.7,43.5,30.21,West,270,0.0,238.7,74,4.43,,,0.00,VWS V14.01,2013-05-28 06:16:00,
2013-05-28 02:23:00,52.0,44.4,30.22,West,270,0.0,238.7,75,4.43,,,0.00,VWS V14.01,2013-05-28 06:23:00,
2013-05-28 02:25:00,51.7,43.3,30.21,West,270,0.0,238.7,73,4.43,,,0.00,VWS V14.01,2013-05-28 06:25:00,
2013-05-28 02:34:00,51.7,44.8,30.21,West,270,0.0,238.7,77,4.43,,,0.00,VWS V14.01,2013-05-28 06:34:00,
2013-05-28 02:42:00,51.7,44.4,30.21,West,270,0.0,238.7,76,4.43,,,0.00,VWS V14.01,2013-05-28 06:42:00,
2013-05-28 02:47:00,51.7,44.7,30.21,West,270,0.0,238.7,77,4.43,,,0.00,VWS V14.01,2013-05-28 06:47:00,
2013-05-28 02:54:00,51.4,44.2,30.21,West,270,0.0,238.7,76,4.43,,,0.00,VWS V14.01,2013-05-28 06:54:00,
2013-05-28 03:00:00,51.5,43.8,30.21,West,270,0.0,238.7,75,4.43,,,0.00,VWS V14.01,2013-05-28 07:00:00,
2013-05-28 03:07:00,51.6,43.6,30.21,West,270,0.0,238.7,74,4.43,,,0.00,VWS V14.01,2013-05-28 07:07:00,
2013-05-28 03:12:00,51.6,43.4,30.21,West,270,0.0,238.7,74,4.43,,,0.00,VWS V14.01,2013-05-28 07:12:00,
2013-05-28 03:18:00,51.7,43.6,30.21,West,270,0.0,238.7,74,4.43,,,0.00,VWS V14.01,2013-05-28 07:18:00,
2013-05-28 03:24:00,51.8,43.5,30.21,West,270,0.0,238.7,73,4.43,,,0.00,VWS V14.01,2013-05-28 07:24:00,
2013-05-28 03:29:00,51.8,43.5,30.21,West,270,0.0,238.7,73,4.43,,,0.00,VWS V14.01,2013-05-28 07:29:00,
2013-05-28 03:34:00,51.7,43.5,30.21,West,270,0.0,238.7,74,4.43,,,0.00,VWS V14.01,2013-05-28 07:34:00,
2013-05-28 03:39:00,51.7,43.7,30.21,West,270,0.0,238.7,74,4.43,,,0.00,VWS V14.01,2013-05-28 07:39:00,
2013-05-28 03:45:00,51.7,43.6,30.21,West,270,0.0,238.7,74,4.43,,,0.00,VWS V14.01,2013-05-28 07:45:00,
2013-05-28 03:50:00,51.7,43.4,30.21,West,270,0.0,238.7,73,4.43,,,0.00,VWS V14.01,2013-05-28 07:50:00,
2013-05-28 03:55:00,51.6,43.2,30.21,West,270,0.0,238.7,73,4.43,,,0.00,VWS V14.01,2013-05-28 07:55:00,
2013-05-28 04:00:00,51.6,43.1,30.21,West,270,0.0,238.7,73,4.43,,,0.00,VWS V14.01,2013-05-28 08:00:00,
2013-05-28 04:05:00,51.5,42.5,30.21,West,270,0.0,238.7,71,4.43,,,0.00,VWS V14.01,2013-05-28 08:05:00,
2013-05-28 04:11:00,51.5,42.3,30.21,West,270,0.0,238.7,71,4.43,,,0.00,VWS V14.01,2013-05-28 08:11:00,
2013-05-28 04:16:00,51.7,42.8,30.21,West,270,0.0,238.7,71,4.43,,,0.00,VWS V14.01,2013-05-28 08:16:00,
2013-05-28 04:22:00,51.6,42.7,30.21,West,270,0.0,238.7,72,4.43,,,0.00,VWS V14.01,2013-05-28 08:22:00,
2013-05-28 04:27:00,51.6,42.2,30.21,West,270,0.0,238.7,70,4.43,,,0.00,VWS V14.01,2013-05-28 08:27:00,
2013-05-28 04:32:00,51.4,42.0,30.21,West,270,0.0,238.7,70,4.43,,,0.00,VWS V14.01,2013-05-28 08:32:00,
2013-05-28 04:37:00,51.6,42.1,30.21,West,270,0.0,238.7,70,4.43,,,0.00,VWS V14.01,2013-05-28 08:37:00,
2013-05-28 04:43:00,51.4,42.4,30.21,West,270,0.0,238.7,71,4.43,,,0.00,VWS V14.01,2013-05-28 08:43:00,
2013-05-28 04:48:00,51.5,42.6,30.21,West,270,0.0,238.7,72,4.43,,,0.00,VWS V14.01,2013-05-28 08:48:00,
2013-05-28 04:53:00,51.4,42.7,30.21,West,270,0.0,238.7,72,4.43,,,0.00,VWS V14.01,2013-05-28 08:53:00,
2013-05-28 04:58:00,51.6,42.7,30.21,West,270,0.0,238.7,72,4.43,,,0.00,VWS V14.01,2013-05-28 08:58:00,
2013-05-28 05:04:00,51.2,42.5,30.21,West,270,0.0,238.7,72,4.43,,,0.00,VWS V14.01,2013-05-28 09:04:00,
2013-05-28 05:09:00,51.1,42.7,30.21,West,270,0.0,238.7,73,4.43,,,0.00,VWS V14.01,2013-05-28 09:09:00,
2013-05-28 05:14:00,51.0,42.9,30.21,West,270,0.0,238.7,74,4.43,,,0.00,VWS V14.01,2013-05-28 09:14:00,
2013-05-28 05:19:00,51.0,43.1,30.21,West,270,0.0,238.7,74,4.43,,,0.00,VWS V14.01,2013-05-28 09:19:00,
2013-05-28 05:24:00,51.1,43.2,30.21,West,270,0.0,238.7,74,4.43,,,0.00,VWS V14.01,2013-05-28 09:24:00,
2013-05-28 05:30:00,51.1,43.1,30.21,West,270,0.0,238.7,74,4.43,,,0.00,VWS V14.01,2013-05-28 09:30:00,
2013-05-28 05:35:00,50.9,43.2,30.22,West,270,0.0,238.7,75,4.43,,,0.00,VWS V14.01,2013-05-28 09:35:00,
2013-05-28 05:40:00,51.0,42.9,30.22,West,270,0.0,238.7,74,4.43,,,0.00,VWS V14.01,2013-05-28 09:40:00,
2013-05-28 05:45:00,50.9,42.8,30.22,West,270,0.0,238.7,74,4.43,,,0.00,VWS V14.01,2013-05-28 09:45:00,
2013-05-28 05:51:00,50.8,42.9,30.22,West,270,0.0,238.7,74,4.43,,,0.00,VWS V14.01,2013-05-28 09:51:00,
2013-05-28 05:56:00,50.9,43.3,30.21,West,270,0.0,238.7,75,4.43,,,0.00,VWS V14.01,2013-05-28 09:56:00,
2013-05-28 06:01:00,50.8,43.2,30.22,West,270,0.0,238.7,75,4.43,,,0.00,VWS V14.01,2013-05-28 10:01:00,
2013-05-28 06:06:00,50.9,43.7,30.22,West,270,0.0,238.7,76,4.43,,,0.00,VWS V14.01,2013-05-28 10:06:00,
2013-05-28 06:11:00,50.9,43.7,30.22,West,270,0.0,238.7,76,4.43,,,0.00,VWS V14.01,2013-05-28 10:11:00,
2013-05-28 06:17:00,50.8,43.5,30.22,West,270,0.0,238.7,76,4.43,,,0.00,VWS V14.01,2013-05-28 10:17:00,
2013-05-28 06:22:00,51.0,43.5,30.22,West,270,0.0,238.7,75,4.43,,,0.00,VWS V14.01,2013-05-28 10:22:00,
2013-05-28 06:27:00,51.0,43.5,30.23,West,270,0.0,238.7,75,4.43,,,0.00,VWS V14.01,2013-05-28 10:27:00,
2013-05-28 06:32:00,51.1,43.7,30.23,West,270,0.0,238.7,76,4.43,,,0.00,VWS V14.01,2013-05-28 10:32:00,
2013-05-28 06:37:00,51.1,43.8,30.23,West,270,0.0,238.7,76,4.43,,,0.00,VWS V14.01,2013-05-28 10:37:00,
2013-05-28 06:42:00,51.2,44.0,30.23,West,270,0.0,238.7,76,4.43,,,0.00,VWS V14.01,2013-05-28 10:42:00,
2013-05-28 06:48:00,51.2,44.0,30.22,West,270,0.0,238.7,76,4.43,,,0.00,VWS V14.01,2013-05-28 10:48:00,
2013-05-28 06:53:00,51.3,44.1,30.22,West,270,0.0,238.7,76,4.43,,,0.00,VWS V14.01,2013-05-28 10:53:00,
2013-05-28 06:58:00,51.8,44.7,30.22,West,270,0.0,238.7,76,4.43,,,0.00,VWS V14.01,2013-05-28 10:58:00,
2013-05-28 07:03:00,51.8,45.0,30.22,West,270,0.0,238.7,78,4.43,,,0.00,VWS V14.01,2013-05-28 11:03:00,
2013-05-28 07:08:00,52.0,45.3,30.22,West,270,0.0,238.7,78,4.43,,,0.00,VWS V14.01,2013-05-28 11:08:00,
2013-05-28 07:14:00,52.3,45.9,30.22,West,270,0.0,238.7,79,4.43,,,0.00,VWS V14.01,2013-05-28 11:14:00,
2013-05-28 07:19:00,52.4,45.8,30.22,West,270,0.0,238.7,78,4.43,,,0.00,VWS V14.01,2013-05-28 11:19:00,
2013-05-28 07:24:00,52.9,46.3,30.22,West,270,0.0,238.7,78,4.43,,,0.00,VWS V14.01,2013-05-28 11:24:00,
2013-05-28 07:29:00,53.4,47.1,30.23,West,270,0.0,238.7,79,4.43,,,0.00,VWS V14.01,2013-05-28 11:29:00,
2013-05-28 07:34:00,53.8,47.2,30.22,West,270,0.0,238.7,78,4.43,,,0.00,VWS V14.01,2013-05-28 11:34:00,
2013-05-28 07:40:00,54.4,47.6,30.23,West,270,0.0,238.7,78,4.43,,,0.00,VWS V14.01,2013-05-28 11:40:00,
2013-05-28 07:45:00,54.9,47.9,30.23,West,270,0.0,238.7,77,4.43,,,0.00,VWS V14.01,2013-05-28 11:45:00,
2013-05-28 07:50:00,55.5,48.0,30.23,West,270,0.0,238.7,76,4.43,,,0.00,VWS V14.01,2013-05-28 11:50:00,
2013-05-28 07:55:00,56.0,48.2,30.23,West,270,0.0,238.7,75,4.43,,,0.00,VWS V14.01,2013-05-28 11:55:00,
2013-05-28 08:00:00,56.8,47.7,30.23,West,270,0.0,238.7,72,4.43,,,0.00,VWS V14.01,2013-05-28 12:00:00,
2013-05-28 08:06:00,57.3,47.8,30.23,West,270,0.0,238.7,70,4.43,,,0.00,VWS V14.01,2013-05-28 12:06:00,
2013-05-28 08:11:00,57.8,47.5,30.23,West,270,0.0,238.7,69,4.43,,,0.00,VWS V14.01,2013-05-28 12:11:00,
2013-05-28 08:16:00,58.4,47.5,30.23,West,270,0.0,238.7,67,4.43,,,0.00,VWS V14.01,2013-05-28 12:16:00,
2013-05-28 08:21:00,59.0,46.8,30.23,West,270,0.0,238.7,64,4.43,,,0.00,VWS V14.01,2013-05-28 12:21:00,
2013-05-28 08:26:00,59.4,46.5,30.23,West,270,0.0,238.7,62,4.43,,,0.00,VWS V14.01,2013-05-28 12:26:00,
2013-05-28 08:32:00,59.9,46.6,30.23,West,270,0.0,238.7,61,4.43,,,0.00,VWS V14.01,2013-05-28 12:32:00,
2013-05-28 08:37:00,60.5,47.6,30.23,West,270,0.0,238.7,62,4.43,,,0.00,VWS V14.01,2013-05-28 12:37:00,
2013-05-28 08:42:00,61.0,47.9,30.23,West,270,0.0,238.7,62,4.43,,,0.00,VWS V14.01,2013-05-28 12:42:00,
2013-05-28 08:47:00,61.5,47.9,30.23,West,270,0.0,238.7,61,4.43,,,0.00,VWS V14.01,2013-05-28 12:47:00,
2013-05-28 08:53:00,62.1,48.2,30.23,West,270,0.0,238.7,60,4.43,,,0.00,VWS V14.01,2013-05-28 12:53:00,
2013-05-28 08:58:00,62.7,48.6,30.23,West,270,0.0,238.7,60,4.43,,,0.00,VWS V14.01,2013-05-28 12:58:00,
2013-05-28 09:03:00,63.3,48.8,30.23,West,270,0.0,238.7,59,4.43,,,0.00,VWS V14.01,2013-05-28 13:03:00,
2013-05-28 09:09:00,64.0,48.8,30.23,West,270,0.0,238.7,58,4.43,,,0.00,VWS V14.01,2013-05-28 13:09:00,
2013-05-28 09:14:00,64.6,46.9,30.23,West,270,0.0,238.7,53,4.43,,,0.00,VWS V14.01,2013-05-28 13:14:00,
2013-05-28 09:20:00,65.2,46.2,30.23,West,270,0.0,238.7,50,4.43,,,0.00,VWS V14.01,2013-05-28 13:20:00,
2013-05-28 09:25:00,65.8,46.9,30.23,West,270,0.0,238.7,50,4.43,,,0.00,VWS V14.01,2013-05-28 13:25:00,
2013-05-28 09:30:00,66.2,46.1,30.23,West,270,0.0,238.7,48,4.43,,,0.00,VWS V14.01,2013-05-28 13:30:00,
2013-05-28 09:35:00,66.7,46.7,30.23,West,270,0.0,238.7,49,4.43,,,0.00,VWS V14.01,2013-05-28 13:35:00,
2013-05-28 09:40:00,67.2,46.7,30.23,West,270,0.0,238.7,48,4.43,,,0.00,VWS V14.01,2013-05-28 13:40:00,
2013-05-28 09:46:00,67.6,46.1,30.23,West,270,0.0,238.7,46,4.43,,,0.00,VWS V14.01,2013-05-28 13:46:00,
2013-05-28 09:51:00,68.0,46.4,30.23,West,270,0.0,238.7,46,4.43,,,0.00,VWS V14.01,2013-05-28 13:51:00,
2013-05-28 09:56:00,68.3,47.9,30.23,West,270,0.0,238.7,48,4.43,,,0.00,VWS V14.01,2013-05-28 13:56:00,
2013-05-28 10:01:00,68.5,46.4,30.23,West,270,0.0,238.7,45,4.43,,,0.00,VWS V14.01,2013-05-28 14:01:00,
2013-05-28 10:06:00,68.8,46.5,30.24,West,270,0.0,238.7,45,4.43,,,0.00,VWS V14.01,2013-05-28 14:06:00,
2013-05-28 10:12:00,69.1,45.6,30.23,West,270,0.0,238.7,43,4.43,,,0.00,VWS V14.01,2013-05-28 14:12:00,
2013-05-28 10:17:00,69.3,46.5,30.24,West,270,0.0,238.7,44,4.43,,,0.00,VWS V14.01,2013-05-28 14:17:00,
2013-05-28 10:22:00,69.7,47.0,30.24,West,270,0.0,238.7,44,4.43,,,0.00,VWS V14.01,2013-05-28 14:22:00,
2013-05-28 10:27:00,70.1,47.4,30.23,West,270,0.0,238.7,44,4.43,,,0.00,VWS V14.01,2013-05-28 14:27:00,
2013-05-28 10:32:00,70.5,47.4,30.24,West,270,0.0,238.7,44,4.43,,,0.00,VWS V14.01,2013-05-28 14:32:00,
2013-05-28 10:38:00,70.9,48.2,30.24,West,270,0.0,238.7,44,4.43,,,0.00,VWS V14.01,2013-05-28 14:38:00,
2013-05-28 10:43:00,71.2,49.0,30.24,West,270,0.0,238.7,45,4.43,,,0.00,VWS V14.01,2013-05-28 14:43:00,
2013-05-28 10:48:00,71.5,48.0,30.23,West,270,0.0,238.7,43,4.43,,,0.00,VWS V14.01,2013-05-28 14:48:00,
2013-05-28 10:53:00,71.9,48.1,30.24,West,270,0.0,238.7,43,4.43,,,0.00,VWS V14.01,2013-05-28 14:53:00,
2013-05-28 10:58:00,72.1,46.9,30.24,West,270,0.0,238.7,41,4.43,,,0.00,VWS V14.01,2013-05-28 14:58:00,
2013-05-28 11:03:00,71.9,46.0,30.24,West,270,0.0,238.7,40,4.43,,,0.00,VWS V14.01,2013-05-28 15:03:00,
2013-05-28 11:09:00,72.1,47.7,30.24,West,270,0.0,238.7,42,4.43,,,0.00,VWS V14.01,2013-05-28 15:09:00,
2013-05-28 11:14:00,72.3,47.0,30.23,West,270,0.0,238.7,40,4.43,,,0.00,VWS V14.01,2013-05-28 15:14:00,
2013-05-28 11:19:00,72.9,47.3,30.23,South,184,0.0,238.7,40,4.43,,,0.00,VWS V14.01,2013-05-28 15:19:00,
2013-05-28 11:24:00,73.1,47.2,30.23,South,186,0.0,238.7,40,4.43,,,0.00,VWS V14.01,2013-05-28 15:24:00,
2013-05-28 11:29:00,73.2,49.4,30.23,South,186,0.0,238.7,43,4.43,,,0.00,VWS V14.01,2013-05-28 15:29:00,
2013-05-28 11:35:00,73.0,47.6,30.23,South,186,0.0,238.7,40,4.43,,,0.00,VWS V14.01,2013-05-28 15:35:00,
2013-05-28 11:40:00,72.9,47.2,30.23,SW,219,0.0,238.7,40,4.43,,,0.00,VWS V14.01,2013-05-28 15:40:00,
2013-05-28 11:45:00,72.7,47.3,30.23,SW,219,0.0,238.7,40,4.43,,,0.00,VWS V14.01,2013-05-28 15:45:00,
2013-05-28 11:50:00,72.7,47.7,30.23,SW,219,0.0,238.7,41,4.43,,,0.00,VWS V14.01,2013-05-28 15:50:00,
2013-05-28 11:55:00,72.3,47.8,30.23,SW,219,0.0,238.7,42,4.43,,,0.00,VWS V14.01,2013-05-28 15:55:00,
2013-05-28 12:01:00,72.2,48.1,30.23,SW,219,0.0,238.7,42,4.43,,,0.00,VWS V14.01,2013-05-28 16:01:00,
2013-05-28 12:06:00,72.0,48.1,30.23,SW,219,0.0,238.7,43,4.43,,,0.00,VWS V14.01,2013-05-28 16:06:00,
2013-05-28 12:11:00,71.5,47.4,30.23,SW,219,0.0,238.7,42,4.43,,,0.00,VWS V14.01,2013-05-28 16:11:00,
2013-05-28 12:16:00,71.3,47.3,30.23,SW,219,0.0,238.7,42,4.43,,,0.00,VWS V14.01,2013-05-28 16:16:00,
2013-05-28 12:22:00,70.8,46.9,30.23,SW,219,0.0,238.7,42,4.43,,,0.00,VWS V14.01,2013-05-28 16:22:00,
2013-05-28 12:27:00,70.7,47.6,30.23,SW,219,0.0,238.7,44,4.43,,,0.00,VWS V14.01,2013-05-28 16:27:00,
2013-05-28 12:32:00,70.8,48.1,30.23,SW,219,0.0,238.7,44,4.43,,,0.00,VWS V14.01,2013-05-28 16:32:00,
2013-05-28 12:38:00,70.7,47.5,30.23,SW,219,0.0,238.7,44,4.43,,,0.00,VWS V14.01,2013-05-28 16:38:00,
2013-05-28 12:45:00,70.5,47.5,30.23,SW,219,0.0,238.7,44,4.43,,,0.00,VWS V14.01,2013-05-28 16:45:00,
2013-05-28 12:50:00,70.5,48.6,30.23,SW,215,0.0,238.7,46,4.43,,,0.00,VWS V14.01,2013-05-28 16:50:00,
2013-05-28 12:56:00,70.2,48.6,30.23,South,172,3.2,238.7,46,4.43,,,0.00,VWS V14.01,2013-05-28 16:56:00,
2013-05-28 13:01:00,69.7,49.3,30.23,ESE,107,0.0,238.7,48,4.43,,,0.00,VWS V14.01,2013-05-28 17:01:00,
2013-05-28 13:06:00,69.3,52.0,30.23,SW,222,0.0,238.7,54,4.43,,,0.00,VWS V14.01,2013-05-28 17:06:00,
2013-05-28 13:12:00,68.7,52.0,30.23,SW,222,0.0,238.7,55,4.43,,,0.00,VWS V14.01,2013-05-28 17:12:00,
2013-05-28 13:17:00,68.2,52.6,30.23,SW,222,0.0,238.7,57,4.43,,,0.00,VWS V14.01,2013-05-28 17:17:00,
2013-05-28 13:22:00,67.9,54.6,30.22,SW,222,0.0,238.7,62,4.43,,,0.00,VWS V14.01,2013-05-28 17:22:00,
2013-05-28 13:27:00,67.8,55.2,30.22,SW,222,0.0,238.7,64,4.43,,,0.00,VWS V14.01,2013-05-28 17:27:00,
2013-05-28 13:32:00,67.7,56.1,30.22,SW,222,0.0,238.7,66,4.43,,,0.00,VWS V14.01,2013-05-28 17:32:00,
2013-05-28 13:37:00,67.4,56.7,30.22,SW,222,0.0,238.7,68,4.44,,,0.01,VWS V14.01,2013-05-28 17:37:00,
2013-05-28 13:43:00,67.2,56.7,30.22,SW,222,0.0,238.7,69,4.44,,,0.01,VWS V14.01,2013-05-28 17:43:00,
2013-05-28 13:48:00,67.1,56.9,30.22,SW,222,0.0,238.7,70,4.44,,,0.01,VWS V14.01,2013-05-28 17:48:00,
2013-05-28 13:53:00,66.8,56.1,30.22,SW,222,0.0,238.7,68,4.44,,,0.01,VWS V14.01,2013-05-28 17:53:00,
2013-05-28 13:59:00,66.6,57.2,30.22,SW,222,0.0,238.7,72,4.45,,,0.02,VWS V14.01,2013-05-28 17:59:00,
2013-05-28 14:04:00,66.2,57.4,30.22,SW,222,0.0,238.7,73,4.45,,,0.02,VWS V14.01,2013-05-28 18:04:00,
2013-05-28 14:09:00,66.0,57.7,30.22,SW,222,0.0,238.7,75,4.46,,,0.03,VWS V14.01,2013-05-28 18:09:00,
2013-05-28 14:14:00,65.9,57.6,30.22,SW,222,0.0,238.7,74,4.46,,,0.03,VWS V14.01,2013-05-28 18:14:00,
2013-05-28 14:19:00,65.7,57.5,30.22,SW,222,0.0,238.7,75,4.47,,,0.04,VWS V14.01,2013-05-28 18:19:00,
2013-05-28 14:24:00,65.5,57.3,30.22,SW,222,0.0,238.7,75,4.47,,,0.04,VWS V14.01,2013-05-28 18:24:00,
2013-05-28 14:30:00,65.3,57.3,30.22,SW,222,0.0,238.7,75,4.48,,,0.05,VWS V14.01,2013-05-28 18:30:00,
2013-05-28 14:35:00,65.0,57.5,30.22,SW,222,0.0,238.7,77,4.49,,,0.06,VWS V14.01,2013-05-28 18:35:00,
2013-05-28 14:41:00,64.7,57.7,30.22,SW,222,0.0,238.7,78,4.50,,,0.07,VWS V14.01,2013-05-28 18:41:00,
2013-05-28 14:46:00,64.4,57.8,30.22,SW,222,0.0,238.7,79,4.50,,,0.07,VWS V14.01,2013-05-28 18:46:00,
2013-05-28 14:51:00,64.3,58.0,30.22,SW,222,0.0,238.7,80,4.51,,,0.08,VWS V14.01,2013-05-28 18:51:00,
2013-05-28 14:56:00,64.1,58.1,30.22,SW,222,0.0,238.7,81,4.51,,,0.08,VWS V14.01,2013-05-28 18:56:00,
2013-05-28 15:01:00,63.9,58.3,30.22,SW,222,0.0,238.7,82,4.52,,,0.09,VWS V14.01,2013-05-28 19:01:00,
2013-05-28 15:07:00,63.8,58.5,30.22,SW,222,0.0,238.7,83,4.53,,,0.10,VWS V14.01,2013-05-28 19:07:00,
2013-05-28 15:12:00,63.8,58.7,30.22,SW,222,0.0,238.7,83,4.54,,,0.11,VWS V14.01,2013-05-28 19:12:00,
2013-05-28 15:17:00,63.6,58.5,30.21,SW,222,0.0,238.7,84,4.54,,,0.11,VWS V14.01,2013-05-28 19:17:00,
2013-05-28 15:22:00,63.6,58.8,30.22,SW,222,0.0,238.7,84,4.55,,,0.12,VWS V14.01,2013-05-28 19:22:00,
2013-05-28 15:27:00,63.6,58.8,30.22,SW,222,0.0,238.7,84,4.56,,,0.13,VWS V14.01,2013-05-28 19:27:00,
2013-05-28 15:33:00,63.5,58.7,30.22,SW,222,0.0,238.7,84,4.56,,,0.13,VWS V14.01,2013-05-28 19:33:00,
2013-05-28 15:38:00,63.4,58.8,30.22,SW,222,0.0,238.7,85,4.56,,,0.13,VWS V14.01,2013-05-28 19:38:00,
2013-05-28 15:43:00,63.3,58.6,30.22,SW,222,0.0,238.7,85,4.57,,,0.14,VWS V14.01,2013-05-28 19:43:00,
2013-05-28 15:48:00,63.1,58.5,30.22,SW,222,0.0,238.7,85,4.58,,,0.15,VWS V14.01,2013-05-28 19:48:00,
2013-05-28 15:53:00,62.9,58.5,30.22,SW,222,0.0,238.7,86,4.59,,,0.16,VWS V14.01,2013-05-28 19:53:00,
2013-05-28 15:58:00,62.6,58.3,30.21,SW,222,0.0,238.7,86,4.59,,,0.16,VWS V14.01,2013-05-28 19:58:00,
2013-05-28 16:04:00,62.6,58.5,30.22,SW,222,0.0,238.7,87,4.59,,,0.16,VWS V14.01,2013-05-28 20:04:00,
2013-05-28 16:09:00,62.5,58.5,30.21,SW,222,0.0,238.7,87,4.59,,,0.16,VWS V14.01,2013-05-28 20:09:00,
2013-05-28 16:14:00,62.4,58.6,30.22,SW,222,0.0,238.7,87,4.59,,,0.16,VWS V14.01,2013-05-28 20:14:00,
2013-05-28 16:19:00,62.5,58.7,30.21,SW,222,0.0,238.7,88,4.59,,,0.16,VWS V14.01,2013-05-28 20:19:00,
2013-05-28 16:24:00,62.5,58.5,30.21,SW,222,0.0,238.7,87,4.60,,,0.17,VWS V14.01,2013-05-28 20:24:00,
2013-05-28 16:30:00,62.4,58.4,30.22,SW,222,0.0,238.7,87,4.60,,,0.17,VWS V14.01,2013-05-28 20:30:00,
2013-05-28 16:35:00,62.2,58.1,30.21,SW,222,0.0,238.7,86,4.60,,,0.17,VWS V14.01,2013-05-28 20:35:00,
2013-05-28 16:40:00,61.8,58.0,30.21,SW,222,0.0,238.7,87,4.60,,,0.17,VWS V14.01,2013-05-28 20:40:00,
2013-05-28 16:45:00,61.5,57.9,30.21,SW,222,0.0,238.7,88,4.61,,,0.18,VWS V14.01,2013-05-28 20:45:00,
2013-05-28 16:50:00,61.3,57.8,30.21,SW,222,0.0,238.7,88,4.62,,,0.19,VWS V14.01,2013-05-28 20:50:00,
2013-05-28 16:56:00,61.0,57.6,30.21,SW,222,0.0,238.7,88,4.62,,,0.19,VWS V14.01,2013-05-28 20:56:00,
2013-05-28 17:01:00,60.9,57.6,30.21,SW,222,0.0,238.7,89,4.63,,,0.20,VWS V14.01,2013-05-28 21:01:00,
2013-05-28 17:06:00,60.8,57.6,30.21,SW,222,0.0,238.7,89,4.63,,,0.20,VWS V14.01,2013-05-28 21:06:00,
2013-05-28 17:11:00,60.7,57.7,30.21,SW,222,0.0,238.7,90,4.63,,,0.20,VWS V14.01,2013-05-28 21:11:00,
2013-05-28 17:16:00,60.5,57.5,30.20,SW,222,0.0,238.7,90,4.63,,,0.20,VWS V14.01,2013-05-28 21:16:00,
2013-05-28 17:21:00,60.4,57.4,30.20,SW,222,0.0,238.7,90,4.64,,,0.21,VWS V14.01,2013-05-28 21:21:00,
2013-05-28 17:27:00,60.3,57.4,30.20,SW,222,0.0,238.7,90,4.65,,,0.22,VWS V14.01,2013-05-28 21:27:00,
2013-05-28 17:32:00,60.3,57.4,30.20,SW,222,0.0,238.7,90,4.65,,,0.22,VWS V14.01,2013-05-28 21:32:00,
2013-05-28 17:37:00,60.2,57.3,30.20,SW,222,0.0,238.7,90,4.66,,,0.23,VWS V14.01,2013-05-28 21:37:00,
2013-05-28 17:42:00,60.1,57.2,30.20,SW,222,0.0,238.7,90,4.66,,,0.23,VWS V14.01,2013-05-28 21:42:00,
2013-05-28 17:48:00,60.0,57.2,30.20,SW,222,0.0,238.7,91,4.66,,,0.23,VWS V14.01,2013-05-28 21:48:00,
2013-05-28 17:53:00,59.9,57.2,30.19,SW,222,0.0,238.7,91,4.66,,,0.23,VWS V14.01,2013-05-28 21:53:00,
2013-05-28 17:58:00,59.9,57.3,30.19,SW,222,0.0,238.7,91,4.66,,,0.23,VWS V14.01,2013-05-28 21:58:00,
2013-05-28 18:03:00,59.8,57.2,30.19,SW,222,0.0,238.7,91,4.66,,,0.23,VWS V14.01,2013-05-28 22:03:00,
2013-05-28 18:08:00,59.9,57.4,30.19,SW,222,0.0,238.7,91,4.66,,,0.23,VWS V14.01,2013-05-28 22:08:00,
2013-05-28 18:14:00,59.8,57.3,30.19,SW,222,0.0,238.7,91,4.66,,,0.23,VWS V14.01,2013-05-28 22:14:00,
2013-05-28 18:19:00,59.8,57.3,30.18,SW,222,0.0,238.7,91,4.66,,,0.23,VWS V14.01,2013-05-28 22:19:00,
2013-05-28 18:25:00,59.8,57.3,30.18,SW,222,0.0,238.7,92,4.66,,,0.23,VWS V14.01,2013-05-28 22:25:00,
2013-05-28 18:30:00,59.7,57.2,30.18,SW,222,0.0,238.7,92,4.66,,,0.24,VWS V14.01,2013-05-28 22:30:00,
2013-05-28 18:35:00,59.7,57.3,30.18,SW,222,0.0,238.7,92,4.67,,,0.24,VWS V14.01,2013-05-28 22:35:00,
2013-05-28 18:41:00,59.6,57.2,30.18,SW,222,0.0,238.7,92,4.67,,,0.24,VWS V14.01,2013-05-28 22:41:00,
2013-05-28 18:46:00,59.7,57.3,30.18,SW,222,0.0,238.7,92,4.67,,,0.24,VWS V14.01,2013-05-28 22:46:00,
2013-05-28 18:51:00,59.6,57.3,30.19,SW,222,0.0,238.7,92,4.67,,,0.24,VWS V14.01,2013-05-28 22:51:00,
2013-05-28 18:56:00,59.5,57.2,30.18,SW,222,0.0,238.7,92,4.67,,,0.24,VWS V14.01,2013-05-28 22:56:00,
2013-05-28 19:01:00,59.5,57.2,30.19,SW,222,0.0,238.7,92,4.67,,,0.24,VWS V14.01,2013-05-28 23:01:00,
2013-05-28 19:07:00,59.5,57.2,30.19,SW,222,0.0,238.7,92,4.67,,,0.24,VWS V14.01,2013-05-28 23:07:00,
2013-05-28 19:12:00,59.5,57.2,30.18,SW,222,0.0,238.7,92,4.67,,,0.24,VWS V14.01,2013-05-28 23:12:00,
2013-05-28 19:17:00,59.4,57.1,30.18,SW,222,0.0,238.7,92,4.67,,,0.24,VWS V14.01,2013-05-28 23:17:00,
2013-05-28 19:22:00,59.4,57.2,30.19,SW,222,0.0,238.7,92,4.67,,,0.24,VWS V14.01,2013-05-28 23:22:00,
2013-05-28 19:27:00,59.3,57.2,30.18,SW,222,0.0,238.7,93,4.67,,,0.24,VWS V14.01,2013-05-28 23:27:00,
2013-05-28 19:32:00,59.3,57.2,30.18,SW,222,0.0,238.7,93,4.67,,,0.24,VWS V14.01,2013-05-28 23:32:00,
2013-05-28 19:38:00,59.3,57.1,30.18,SW,222,0.0,238.7,92,4.67,,,0.24,VWS V14.01,2013-05-28 23:38:00,
2013-05-28 19:43:00,59.2,57.1,30.18,SW,222,0.0,238.7,93,4.67,,,0.24,VWS V14.01,2013-05-28 23:43:00,
2013-05-28 19:48:00,59.2,57.2,30.18,SW,222,0.0,238.7,93,4.67,,,0.24,VWS V14.01,2013-05-28 23:48:00,
2013-05-28 19:53:00,59.1,57.1,30.18,SW,222,0.0,238.7,93,4.67,,,0.24,VWS V14.01,2013-05-28 23:53:00,
2013-05-28 19:58:00,59.1,57.1,30.17,SW,222,0.0,238.7,93,4.68,,,0.25,VWS V14.01,2013-05-28 23:58:00,
2013-05-28 20:03:00,59.0,57.1,30.17,SW,222,0.0,238.7,93,4.68,,,0.25,VWS V14.01,2013-05-29 00:03:00,
2013-05-28 20:09:00,58.9,57.0,30.17,SW,222,0.0,238.7,93,4.68,,,0.25,VWS V14.01,2013-05-29 00:09:00,
2013-05-28 20:14:00,58.9,57.0,30.17,SW,222,0.0,238.7,94,4.68,,,0.25,VWS V14.01,2013-05-29 00:14:00,
2013-05-28 20:19:00,58.9,57.0,30.16,SW,222,0.0,238.7,94,4.68,,,0.25,VWS V14.01,2013-05-29 00:19:00,
2013-05-28 20:24:00,58.8,57.0,30.17,SW,222,0.0,238.7,94,4.68,,,0.25,VWS V14.01,2013-05-29 00:24:00,
2013-05-28 20:30:00,58.8,57.0,30.17,SW,222,0.0,238.7,94,4.68,,,0.25,VWS V14.01,2013-05-29 00:30:00,
2013-05-28 20:35:00,58.8,57.0,30.17,SW,222,0.0,238.7,94,4.68,,,0.25,VWS V14.01,2013-05-29 00:35:00,
2013-05-28 20:40:00,58.8,57.0,30.16,SW,222,0.0,238.7,94,4.68,,,0.25,VWS V14.01,2013-05-29 00:40:00,
2013-05-28 20:45:00,58.7,56.9,30.16,SW,222,0.0,238.7,94,4.68,,,0.25,VWS V14.01,2013-05-29 00:45:00,
2013-05-28 20:50:00,58.7,57.0,30.16,SW,222,0.0,238.7,94,4.68,,,0.25,VWS V14.01,2013-05-29 00:50:00,
2013-05-28 20:56:00,58.5,56.8,30.17,SW,222,0.0,238.7,94,4.68,,,0.25,VWS V14.01,2013-05-29 00:56:00,
2013-05-28 21:01:00,58.6,57.0,30.17,SW,222,0.0,238.7,94,4.68,,,0.25,VWS V14.01,2013-05-29 01:01:00,
2013-05-28 21:06:00,58.6,57.0,30.17,SW,222,0.0,238.7,94,4.68,,,0.25,VWS V14.01,2013-05-29 01:06:00,
2013-05-28 21:11:00,58.5,56.9,30.17,SW,222,0.0,238.7,94,4.68,,,0.25,VWS V14.01,2013-05-29 01:11:00,
2013-05-28 21:16:00,58.5,56.9,30.17,SW,222,0.0,238.7,94,4.68,,,0.25,VWS V14.01,2013-05-29 01:16:00,
2013-05-28 21:22:00,58.6,56.9,30.17,SW,222,0.0,238.7,94,4.68,,,0.25,VWS V14.01,2013-05-29 01:22:00,
2013-05-28 21:27:00,58.6,56.9,30.17,SW,222,0.0,238.7,94,4.68,,,0.25,VWS V14.01,2013-05-29 01:27:00,
2013-05-28 21:32:00,58.7,57.0,30.17,SW,222,0.0,238.7,94,4.68,,,0.25,VWS V14.01,2013-05-29 01:32:00,
2013-05-28 21:37:00,58.7,57.0,30.17,SW,222,0.0,238.7,94,4.68,,,0.25,VWS V14.01,2013-05-29 01:37:00,
2013-05-28 21:42:00,58.6,56.9,30.16,SW,222,0.0,238.7,94,4.68,,,0.25,VWS V14.01,2013-05-29 01:42:00,
2013-05-28 21:48:00,58.6,57.0,30.17,SW,222,0.0,238.7,94,4.68,,,0.25,VWS V14.01,2013-05-29 01:48:00,
2013-05-28 21:53:00,58.5,56.9,30.17,SW,222,0.0,238.7,94,4.68,,,0.25,VWS V14.01,2013-05-29 01:53:00,
2013-05-28 21:58:00,58.4,56.8,30.17,SW,222,0.0,238.7,94,4.68,,,0.25,VWS V14.01,2013-05-29 01:58:00,
2013-05-28 22:03:00,58.5,56.9,30.17,SW,222,0.0,238.7,94,4.68,,,0.25,VWS V14.01,2013-05-29 02:03:00,
2013-05-28 22:08:00,58.5,56.9,30.17,SW,222,0.0,238.7,94,4.68,,,0.25,VWS V14.01,2013-05-29 02:08:00,
2013-05-28 22:14:00,58.6,57.0,30.17,SW,222,0.0,238.7,94,4.68,,,0.25,VWS V14.01,2013-05-29 02:14:00,
2013-05-28 22:19:00,58.6,57.0,30.17,SW,222,0.0,238.7,94,4.68,,,0.25,VWS V14.01,2013-05-29 02:19:00,
2013-05-28 22:24:00,58.6,57.0,30.17,SW,222,0.0,238.7,94,4.68,,,0.25,VWS V14.01,2013-05-29 02:24:00,
2013-05-28 22:29:00,58.6,57.0,30.17,SW,222,0.0,238.7,94,4.68,,,0.25,VWS V14.01,2013-05-29 02:29:00,
2013-05-28 22:34:00,58.7,57.1,30.17,SW,222,0.0,238.7,94,4.69,,,0.26,VWS V14.01,2013-05-29 02:34:00,
2013-05-28 22:39:00,58.7,57.1,30.17,SW,222,0.0,238.7,94,4.69,,,0.26,VWS V14.01,2013-05-29 02:39:00,
2013-05-28 22:45:00,58.7,57.1,30.17,SW,222,0.0,238.7,94,4.69,,,0.26,VWS V14.01,2013-05-29 02:45:00,
2013-05-28 22:50:00,58.7,57.1,30.16,SW,222,0.0,238.7,94,4.69,,,0.26,VWS V14.01,2013-05-29 02:50:00,
2013-05-28 22:55:00,58.7,57.2,30.16,SW,222,0.0,238.7,95,4.69,,,0.26,VWS V14.01,2013-05-29 02:55:00,
2013-05-28 23:01:00,58.7,57.1,30.16,SW,222,0.0,238.7,94,4.69,,,0.26,VWS V14.01,2013-05-29 03:01:00,
2013-05-28 23:06:00,58.7,57.2,30.17,SW,222,0.0,238.7,95,4.69,,,0.26,VWS V14.01,2013-05-29 03:06:00,
2013-05-28 23:11:00,58.7,57.2,30.16,SW,222,0.0,238.7,95,4.69,,,0.26,VWS V14.01,2013-05-29 03:11:00,
2013-05-28 23:17:00,58.7,57.1,30.16,SW,222,0.0,238.7,94,4.69,,,0.26,VWS V14.01,2013-05-29 03:17:00,
2013-05-28 23:22:00,58.7,57.2,30.16,SW,222,0.0,238.7,95,4.69,,,0.26,VWS V14.01,2013-05-29 03:22:00,
2013-05-28 23:27:00,58.8,57.3,30.16,SW,222,0.0,238.7,95,4.69,,,0.26,VWS V14.01,2013-05-29 03:27:00,
2013-05-28 23:33:00,58.8,57.2,30.16,SW,222,0.0,238.7,94,4.69,,,0.26,VWS V14.01,2013-05-29 03:33:00,
2013-05-28 23:38:00,58.7,57.2,30.16,SW,222,0.0,238.7,95,4.69,,,0.26,VWS V14.01,2013-05-29 03:38:00,
2013-05-28 23:43:00,58.7,57.2,30.16,SW,222,0.0,238.7,95,4.69,,,0.26,VWS V14.01,2013-05-29 03:43:00,
2013-05-28 23:49:00,58.8,57.3,30.16,SW,222,0.0,238.7,95,4.69,,,0.26,VWS V14.01,2013-05-29 03:49:00,
2013-05-28 23:54:00,58.8,57.3,30.16,SW,222,0.0,238.7,95,4.69,,,0.26,VWS V14.01,2013-05-29 03:54:00,
2013-05-28 23:59:00,58.6,57.2,30.16,SW,222,0.0,238.7,95,4.69,,,0.26,VWS V14.01,2013-05-29 03:59:00,